createdAt,value
2023-03-20T00:02:24.302Z,12.00
2023-03-20T00:04:52.035Z,12.00
2023-03-20T00:07:19.896Z,12.00
2023-03-20T00:09:48.755Z,12.00
2023-03-20T00:12:23.777Z,12.10
2023-03-20T00:14:51.796Z,12.20
2023-03-20T00:17:21.194Z,12.20
2023-03-20T00:19:49.222Z,12.20
2023-03-20T00:22:16.925Z,12.30
2023-03-20T00:24:44.692Z,12.30
2023-03-20T00:27:15.626Z,12.30
2023-03-20T00:29:44.250Z,12.30
2023-03-20T00:32:13.382Z,12.20
2023-03-20T00:34:41.380Z,12.30
2023-03-20T00:37:11.954Z,12.40
2023-03-20T00:39:40.554Z,12.30
2023-03-20T00:42:21.628Z,12.10
2023-03-20T00:44:55.870Z,12.10
2023-03-20T00:47:27.457Z,12.00
2023-03-20T00:49:56.142Z,11.90
2023-03-20T00:52:24.501Z,11.90
2023-03-20T00:54:53.127Z,12.00
2023-03-20T00:57:30.994Z,12.00
2023-03-20T01:00:05.356Z,11.90
2023-03-20T01:02:33.915Z,11.90
2023-03-20T01:05:02.377Z,12.00
2023-03-20T01:07:30.082Z,12.00
2023-03-20T01:09:57.813Z,12.00
2023-03-20T01:12:25.860Z,12.00
2023-03-20T01:14:57.285Z,12.00
2023-03-20T01:17:27.263Z,12.10
2023-03-20T01:19:55.616Z,12.00
2023-03-20T01:22:23.287Z,12.10
2023-03-20T01:24:51.149Z,12.00
2023-03-20T01:27:20.533Z,12.00
2023-03-20T01:29:48.464Z,12.10
2023-03-20T01:32:18.640Z,12.10
2023-03-20T01:34:51.587Z,12.00
2023-03-20T01:37:26.387Z,12.00
2023-03-20T01:39:57.379Z,12.00
2023-03-20T01:42:26.075Z,12.00
2023-03-20T01:44:53.797Z,11.90
2023-03-20T01:47:24.574Z,11.80
2023-03-20T01:50:14.120Z,11.80
2023-03-20T01:52:42.042Z,11.70
2023-03-20T01:55:10.474Z,11.70
2023-03-20T01:57:39.861Z,11.80
2023-03-20T02:00:15.788Z,11.90
2023-03-20T02:02:46.545Z,11.90
2023-03-20T02:05:25.787Z,11.90
2023-03-20T02:08:05.725Z,11.90
2023-03-20T02:10:33.628Z,11.90
2023-03-20T02:13:18.825Z,11.90
2023-03-20T02:16:11.929Z,11.90
2023-03-20T02:19:03.069Z,11.80
2023-03-20T02:21:46.221Z,11.70
2023-03-20T02:24:32.636Z,11.50
2023-03-20T02:27:49.549Z,11.50
2023-03-20T02:30:33.780Z,11.50
2023-03-20T02:33:20.049Z,11.50
2023-03-20T02:36:06.575Z,11.50
2023-03-20T02:38:54.782Z,11.50
2023-03-20T02:41:38.268Z,11.50
2023-03-20T02:44:11.783Z,11.60
2023-03-20T02:47:18.808Z,11.60
2023-03-20T02:49:53.190Z,11.50
2023-03-20T02:52:29.153Z,11.50
2023-03-20T02:55:20.129Z,11.40
2023-03-20T02:57:54.390Z,11.40
2023-03-20T03:00:37.248Z,11.40
2023-03-20T03:03:14.514Z,11.40
2023-03-20T03:06:04.824Z,11.30
2023-03-20T03:08:38.098Z,11.30
2023-03-20T03:11:08.825Z,11.20
2023-03-20T03:13:42.934Z,11.20
2023-03-20T03:16:16.672Z,11.10
2023-03-20T03:18:46.947Z,11.10
2023-03-20T03:21:18.804Z,11.00
2023-03-20T03:23:49.237Z,10.90
2023-03-20T03:26:39.542Z,11.10
2023-03-20T03:29:17.530Z,11.30
2023-03-20T03:31:46.707Z,11.20
2023-03-20T03:34:17.917Z,11.00
2023-03-20T03:37:16.831Z,11.00
2023-03-20T03:39:55.056Z,11.00
2023-03-20T03:43:02.229Z,11.30
2023-03-20T03:45:37.324Z,11.50
2023-03-20T03:48:26.034Z,11.50
2023-03-20T03:50:58.036Z,11.40
2023-03-20T03:53:32.441Z,11.30
2023-03-20T03:56:05.151Z,11.20
2023-03-20T03:58:44.693Z,11.10
2023-03-20T04:01:14.797Z,11.10
2023-03-20T04:03:49.340Z,11.20
2023-03-20T04:06:18.031Z,11.10
2023-03-20T04:08:45.775Z,11.10
2023-03-20T04:11:22.476Z,11.00
2023-03-20T04:13:52.024Z,11.10
2023-03-20T04:16:21.931Z,11.00
2023-03-20T04:18:50.375Z,10.90
2023-03-20T04:21:19.379Z,10.80
2023-03-20T04:23:47.556Z,10.80
2023-03-20T04:26:15.923Z,10.70
2023-03-20T04:28:43.713Z,10.70
2023-03-20T04:31:30.758Z,10.70
2023-03-20T04:34:27.650Z,10.70
2023-03-20T04:37:08.701Z,10.70
2023-03-20T04:39:54.766Z,10.70
2023-03-20T04:42:22.631Z,10.70
2023-03-20T04:44:54.999Z,10.70
2023-03-20T04:47:23.251Z,10.80
2023-03-20T04:49:51.094Z,10.80
2023-03-20T04:52:19.732Z,10.80
2023-03-20T04:54:47.512Z,11.00
2023-03-20T04:57:15.246Z,11.10
2023-03-20T04:59:43.191Z,11.00
2023-03-20T05:02:15.043Z,10.90
2023-03-20T05:04:43.470Z,10.80
2023-03-20T05:07:11.893Z,10.70
2023-03-20T05:10:02.803Z,10.80
2023-03-20T05:12:34.517Z,10.80
2023-03-20T05:15:31.201Z,10.70
2023-03-20T05:18:17.295Z,10.70
2023-03-20T05:21:04.434Z,10.60
2023-03-20T05:23:50.927Z,10.60
2023-03-20T05:26:30.540Z,10.50
2023-03-20T05:29:16.973Z,10.60
2023-03-20T05:31:47.864Z,10.60
2023-03-20T05:34:26.411Z,10.70
2023-03-20T05:37:05.441Z,10.60
2023-03-20T05:39:46.594Z,10.50
2023-03-20T05:42:32.677Z,10.40
2023-03-20T05:45:30.368Z,10.50
2023-03-20T05:48:16.743Z,10.50
2023-03-20T05:51:03.278Z,10.40
2023-03-20T05:53:39.109Z,10.70
2023-03-20T05:56:45.585Z,10.80
2023-03-20T05:59:26.908Z,10.70
2023-03-20T06:02:14.573Z,10.70
2023-03-20T06:04:48.956Z,10.70
2023-03-20T06:07:39.484Z,10.70
2023-03-20T06:10:12.401Z,10.70
2023-03-20T06:12:40.172Z,10.60
2023-03-20T06:15:08.329Z,10.70
2023-03-20T06:17:41.266Z,10.80
2023-03-20T06:20:10.005Z,10.80
2023-03-20T06:22:38.083Z,10.90
2023-03-20T06:25:06.844Z,10.90
2023-03-20T06:27:39.884Z,11.00
2023-03-20T06:30:08.580Z,11.10
2023-03-20T06:32:37.509Z,11.10
2023-03-20T06:35:09.476Z,11.10
2023-03-20T06:37:38.029Z,11.20
2023-03-20T06:40:12.013Z,11.30
2023-03-20T06:42:40.362Z,11.40
2023-03-20T06:45:09.705Z,11.60
2023-03-20T06:48:00.286Z,11.80
2023-03-20T06:50:27.969Z,11.90
2023-03-20T06:52:56.722Z,11.90
2023-03-20T06:55:50.417Z,11.90
2023-03-20T06:58:18.909Z,11.90
2023-03-20T07:00:50.452Z,11.90
2023-03-20T07:03:18.616Z,11.90
2023-03-20T07:05:48.744Z,11.90
2023-03-20T07:08:17.537Z,11.90
2023-03-20T07:10:45.307Z,11.90
2023-03-20T07:13:14.520Z,12.00
2023-03-20T07:15:57.514Z,11.90
2023-03-20T07:18:33.490Z,12.00
2023-03-20T07:21:03.931Z,11.90
2023-03-20T07:23:34.666Z,11.90
2023-03-20T07:26:05.625Z,11.90
2023-03-20T07:28:34.604Z,11.90
2023-03-20T07:31:23.447Z,11.90
2023-03-20T07:33:57.182Z,11.90
2023-03-20T07:36:25.512Z,11.90
2023-03-20T07:38:53.249Z,11.90
2023-03-20T07:41:21.000Z,12.00
2023-03-20T07:43:59.472Z,12.20
2023-03-20T07:46:29.732Z,12.30
2023-03-20T07:48:58.349Z,12.50
2023-03-20T07:51:26.136Z,12.70
2023-03-20T07:53:53.904Z,12.90
2023-03-20T07:56:21.714Z,13.00
2023-03-20T07:58:49.473Z,13.20
2023-03-20T08:01:17.260Z,13.10
2023-03-20T08:03:45.263Z,13.10
2023-03-20T08:06:13.288Z,13.10
2023-03-20T08:08:41.861Z,13.00
2023-03-20T08:11:09.819Z,13.00
2023-03-20T08:13:37.973Z,12.90
2023-03-20T08:16:06.457Z,12.90
2023-03-20T08:18:34.257Z,12.80
2023-03-20T08:21:01.991Z,12.80
2023-03-20T08:23:29.784Z,12.80
2023-03-20T08:25:57.632Z,12.90
2023-03-20T08:28:44.001Z,13.00
2023-03-20T08:31:13.317Z,13.10
2023-03-20T08:33:41.223Z,13.10
2023-03-20T08:36:09.291Z,13.20
2023-03-20T08:38:37.096Z,13.20
2023-03-20T08:41:06.250Z,13.20
2023-03-20T08:43:34.055Z,13.20
2023-03-20T08:46:01.862Z,13.30
2023-03-20T08:48:29.597Z,13.30
2023-03-20T08:50:57.265Z,13.30
2023-03-20T08:53:25.337Z,13.40
2023-03-20T08:55:54.120Z,13.50
2023-03-20T08:58:22.616Z,13.70
2023-03-20T09:00:50.339Z,13.80
2023-03-20T09:03:21.196Z,13.90
2023-03-20T09:05:51.481Z,14.00
2023-03-20T09:08:19.392Z,14.10
2023-03-20T09:10:51.430Z,14.20
2023-03-20T09:13:27.267Z,14.30
2023-03-20T09:15:57.027Z,14.40
2023-03-20T09:18:25.116Z,14.40
2023-03-20T09:20:53.243Z,14.40
2023-03-20T09:23:21.033Z,14.50
2023-03-20T09:25:48.907Z,14.50
2023-03-20T09:28:16.605Z,14.60
2023-03-20T09:30:45.520Z,14.60
2023-03-20T09:33:15.032Z,14.70
2023-03-20T09:35:43.803Z,14.70
2023-03-20T09:38:12.482Z,14.90
2023-03-20T09:40:52.705Z,14.80
2023-03-20T09:43:27.764Z,14.70
2023-03-20T09:46:04.605Z,14.70
2023-03-20T09:48:35.108Z,14.70
2023-03-20T09:51:17.845Z,14.80
2023-03-20T09:53:52.179Z,14.90
2023-03-20T09:56:28.341Z,15.00
2023-03-20T09:59:01.901Z,15.30
2023-03-20T10:02:30.998Z,15.40
2023-03-20T10:04:59.318Z,15.50
2023-03-20T10:07:27.170Z,15.60
2023-03-20T10:09:54.969Z,15.60
2023-03-20T10:12:25.549Z,15.60
2023-03-20T10:14:56.370Z,15.70
2023-03-20T10:17:33.161Z,15.70
2023-03-20T10:20:24.690Z,15.70
2023-03-20T10:22:58.404Z,15.80
2023-03-20T10:25:34.300Z,15.80
2023-03-20T10:28:11.493Z,15.80
2023-03-20T10:30:58.335Z,15.80
2023-03-20T10:33:50.479Z,16.10
2023-03-20T10:36:39.180Z,16.20
2023-03-20T10:39:23.182Z,16.30
2023-03-20T10:41:56.206Z,16.50
2023-03-20T10:44:41.185Z,16.50
2023-03-20T10:47:13.796Z,16.50
2023-03-20T10:49:47.840Z,16.70
2023-03-20T10:52:32.422Z,16.80
2023-03-20T10:55:12.012Z,16.80
2023-03-20T10:57:46.589Z,16.70
2023-03-20T11:00:23.631Z,16.90
2023-03-20T11:02:51.606Z,17.00
2023-03-20T11:05:35.008Z,17.10
2023-03-20T11:08:13.490Z,17.00
2023-03-20T11:10:42.895Z,17.10
2023-03-20T11:13:31.716Z,17.20
2023-03-20T11:16:26.328Z,17.10
2023-03-20T11:18:55.148Z,17.30
2023-03-20T11:21:31.580Z,17.20
2023-03-20T11:24:00.970Z,17.00
2023-03-20T11:26:37.615Z,17.10
2023-03-20T11:29:30.521Z,17.30
2023-03-20T11:32:16.828Z,17.40
2023-03-20T11:34:44.949Z,17.70
2023-03-20T11:37:26.179Z,17.90
2023-03-20T11:40:14.115Z,18.10
2023-03-20T11:42:53.513Z,18.30
2023-03-20T11:45:21.477Z,18.30
2023-03-20T11:47:55.523Z,18.40
2023-03-20T11:50:35.716Z,18.40
2023-03-20T11:53:18.610Z,18.50
2023-03-20T11:56:02.353Z,18.60
2023-03-20T11:58:30.460Z,18.60
2023-03-20T12:00:59.463Z,18.80
2023-03-20T12:03:35.377Z,18.60
2023-03-20T12:06:06.189Z,18.40
2023-03-20T12:08:38.745Z,18.50
2023-03-20T12:11:22.227Z,18.50
2023-03-20T12:13:51.501Z,18.60
2023-03-20T12:16:25.286Z,18.80
2023-03-20T12:18:56.653Z,18.80
2023-03-20T12:21:30.610Z,19.10
2023-03-20T12:24:25.913Z,19.30
2023-03-20T12:27:12.537Z,19.50
2023-03-20T12:29:58.560Z,19.40
2023-03-20T12:32:42.697Z,19.40
2023-03-20T12:35:25.270Z,19.50
2023-03-20T12:37:53.227Z,19.40
2023-03-20T12:40:43.734Z,19.60
2023-03-20T12:43:15.839Z,19.70
2023-03-20T12:45:59.127Z,19.30
2023-03-20T12:48:44.092Z,19.00
2023-03-20T12:51:37.550Z,18.80
2023-03-20T12:54:45.555Z,18.70
2023-03-20T12:57:31.581Z,18.40
2023-03-20T13:00:20.471Z,18.70
2023-03-20T13:03:16.960Z,19.10
2023-03-20T13:06:21.315Z,19.30
2023-03-20T13:09:04.034Z,19.40
2023-03-20T13:11:52.387Z,19.30
2023-03-20T13:14:27.784Z,19.20
2023-03-20T13:17:32.631Z,19.60
2023-03-20T13:20:03.598Z,19.60
2023-03-20T13:22:40.193Z,19.30
2023-03-20T13:25:26.218Z,19.10
2023-03-20T13:28:17.389Z,18.80
2023-03-20T13:31:03.391Z,18.90
2023-03-20T13:33:40.148Z,19.30
2023-03-20T13:36:18.051Z,19.60
2023-03-20T13:39:03.118Z,19.80
2023-03-20T13:41:34.884Z,20.10
2023-03-20T13:44:05.949Z,20.20
2023-03-20T13:46:39.891Z,20.00
2023-03-20T13:49:30.858Z,20.00
2023-03-20T13:52:17.459Z,19.70
2023-03-20T13:55:11.612Z,19.70
2023-03-20T13:58:04.090Z,19.70
2023-03-20T14:00:38.081Z,19.60
2023-03-20T14:03:19.807Z,19.50
2023-03-20T14:05:48.175Z,19.60
2023-03-20T14:08:33.401Z,19.70
2023-03-20T14:11:21.376Z,19.70
2023-03-20T14:13:56.775Z,19.60
2023-03-20T14:16:27.795Z,19.60
2023-03-20T14:19:21.080Z,19.70
2023-03-20T14:21:52.264Z,19.80
2023-03-20T14:24:21.212Z,19.90
2023-03-20T14:26:52.993Z,19.80
2023-03-20T14:29:33.464Z,19.80
2023-03-20T14:32:23.072Z,19.70
2023-03-20T14:35:14.345Z,19.60
2023-03-20T14:38:10.365Z,19.30
2023-03-20T14:40:54.103Z,19.30
2023-03-20T14:43:38.644Z,19.00
2023-03-20T14:46:26.189Z,18.90
2023-03-20T14:48:56.158Z,18.90
2023-03-20T14:52:04.581Z,18.80
2023-03-20T14:54:32.380Z,18.50
2023-03-20T14:57:17.267Z,18.50
2023-03-20T14:59:48.290Z,18.50
2023-03-20T15:02:36.959Z,18.50
2023-03-20T15:05:05.423Z,18.60
2023-03-20T15:07:39.159Z,18.50
2023-03-20T15:10:07.812Z,18.60
2023-03-20T15:12:37.484Z,18.60
2023-03-20T15:15:08.348Z,18.50
2023-03-20T15:17:47.427Z,18.20
2023-03-20T15:20:19.966Z,18.10
2023-03-20T15:22:49.049Z,18.10
2023-03-20T15:25:19.863Z,18.10
2023-03-20T15:27:49.703Z,18.10
2023-03-20T15:30:20.422Z,18.20
2023-03-20T15:32:50.659Z,18.20
2023-03-20T15:35:21.822Z,18.20
2023-03-20T15:37:51.777Z,18.20
2023-03-20T15:40:40.116Z,18.20
2023-03-20T15:43:26.609Z,18.30
2023-03-20T15:46:18.348Z,18.10
2023-03-20T15:48:50.551Z,18.20
2023-03-20T15:51:21.655Z,18.20
2023-03-20T15:53:49.948Z,18.20
2023-03-20T15:56:20.418Z,18.00
2023-03-20T15:58:56.835Z,17.90
2023-03-20T16:01:26.648Z,17.80
2023-03-20T16:04:00.113Z,17.80
2023-03-20T16:06:29.466Z,17.80
2023-03-20T16:09:00.182Z,17.70
2023-03-20T16:11:40.726Z,17.60
2023-03-20T16:14:25.491Z,17.60
2023-03-20T16:16:56.240Z,17.60
2023-03-20T16:19:26.736Z,17.60
2023-03-20T16:21:58.777Z,17.70
2023-03-20T16:24:30.475Z,17.70
2023-03-20T16:26:59.068Z,17.70
2023-03-20T16:29:29.498Z,17.60
2023-03-20T16:32:07.873Z,17.60
2023-03-20T16:34:38.082Z,17.60
2023-03-20T16:37:26.394Z,17.50
2023-03-20T16:40:15.382Z,17.40
2023-03-20T16:42:44.466Z,17.30
2023-03-20T16:45:25.450Z,17.10
2023-03-20T16:48:13.168Z,17.10
2023-03-20T16:50:45.812Z,17.00
2023-03-20T16:53:19.747Z,17.00
2023-03-20T16:55:50.707Z,17.00
2023-03-20T16:58:27.128Z,16.90
2023-03-20T17:01:04.956Z,16.90
2023-03-20T17:03:48.310Z,16.80
2023-03-20T17:06:22.159Z,16.80
2023-03-20T17:08:55.441Z,16.80
2023-03-20T17:11:32.936Z,16.80
2023-03-20T17:14:01.539Z,16.70
2023-03-20T17:16:29.482Z,16.70
2023-03-20T17:19:06.077Z,16.70
2023-03-20T17:21:34.624Z,16.60
2023-03-20T17:24:02.554Z,16.50
2023-03-20T17:26:30.854Z,16.50
2023-03-20T17:28:58.693Z,16.30
2023-03-20T17:31:26.638Z,16.20
2023-03-20T17:33:54.478Z,16.20
2023-03-20T17:36:26.706Z,16.10
2023-03-20T17:38:59.164Z,16.00
2023-03-20T17:41:28.053Z,16.00
2023-03-20T17:43:58.534Z,16.00
2023-03-20T17:46:31.361Z,16.00
2023-03-20T17:49:03.109Z,15.80
2023-03-20T17:51:31.272Z,15.70
2023-03-20T17:53:59.437Z,15.60
2023-03-20T17:56:30.388Z,15.50
2023-03-20T17:59:02.312Z,15.40
2023-03-20T18:01:32.640Z,15.40
2023-03-20T18:04:00.696Z,15.20
2023-03-20T18:06:33.722Z,15.20
2023-03-20T18:09:02.514Z,15.00
2023-03-20T18:11:30.601Z,15.00
2023-03-20T18:13:58.606Z,14.90
2023-03-20T18:16:27.656Z,14.90
2023-03-20T18:18:55.833Z,14.80
2023-03-20T18:21:23.705Z,14.80
2023-03-20T18:23:51.644Z,14.70
2023-03-20T18:26:22.391Z,14.70
2023-03-20T18:28:51.922Z,14.60
2023-03-20T18:31:20.667Z,14.50
2023-03-20T18:33:49.935Z,14.50
2023-03-20T18:36:23.057Z,14.40
2023-03-20T18:38:52.000Z,14.40
2023-03-20T18:41:20.806Z,14.30
2023-03-20T18:43:48.902Z,14.40
2023-03-20T18:46:19.077Z,14.30
2023-03-20T18:48:47.355Z,14.20
2023-03-20T18:51:15.525Z,14.20
2023-03-20T18:53:43.624Z,14.10
2023-03-20T18:56:16.437Z,14.10
2023-03-20T18:58:45.017Z,14.00
2023-03-20T19:01:14.892Z,13.70
2023-03-20T19:03:44.246Z,13.60
2023-03-20T19:06:21.283Z,13.40
2023-03-20T19:08:49.976Z,13.40
2023-03-20T19:11:21.211Z,13.40
2023-03-20T19:13:52.606Z,13.40
2023-03-20T19:16:24.783Z,13.60
2023-03-20T19:18:59.057Z,13.70
2023-03-20T19:21:27.369Z,13.80
2023-03-20T19:23:57.146Z,13.80
2023-03-20T19:26:27.176Z,13.80
2023-03-20T19:28:56.960Z,13.90
2023-03-20T19:31:25.405Z,13.90
2023-03-20T19:33:53.470Z,13.80
2023-03-20T19:36:26.826Z,13.90
2023-03-20T19:38:55.424Z,13.70
2023-03-20T19:41:23.346Z,13.70
2023-03-20T19:43:55.377Z,13.70
2023-03-20T19:46:42.049Z,13.80
2023-03-20T19:49:28.162Z,13.70
2023-03-20T19:51:58.101Z,13.70
2023-03-20T19:54:25.931Z,13.60
2023-03-20T19:56:53.628Z,13.50
2023-03-20T19:59:22.776Z,13.50
2023-03-20T20:01:52.054Z,13.50
2023-03-20T20:04:19.991Z,13.50
2023-03-20T20:06:47.857Z,13.40
2023-03-20T20:09:15.983Z,13.40
2023-03-20T20:11:44.466Z,13.20
2023-03-20T20:14:14.794Z,13.10
2023-03-20T20:16:43.755Z,13.00
2023-03-20T20:19:12.089Z,13.00
2023-03-20T20:24:28.391Z,12.90
2023-03-20T20:27:15.380Z,13.00
2023-03-20T20:29:47.959Z,13.10
2023-03-20T20:32:16.870Z,13.10
2023-03-20T20:40:25.050Z,12.90
2023-03-20T20:42:54.370Z,13.10
2023-03-20T20:45:24.740Z,13.00
2023-03-20T20:47:53.401Z,12.90
2023-03-20T20:50:23.923Z,13.00
2023-03-20T20:52:52.349Z,12.90
2023-03-20T20:55:23.528Z,12.80
2023-03-20T20:57:53.099Z,12.60
2023-03-20T21:00:27.459Z,12.70
2023-03-20T21:02:59.409Z,12.70
2023-03-20T21:05:27.741Z,12.80
2023-03-20T21:07:55.506Z,12.70
2023-03-20T21:10:23.293Z,12.60
2023-03-20T21:12:59.138Z,12.50
2023-03-20T21:15:28.035Z,12.40
2023-03-20T21:18:01.422Z,12.30
2023-03-20T21:20:31.221Z,12.30
2023-03-20T21:22:59.227Z,12.40
2023-03-20T21:25:39.492Z,12.50
2023-03-20T21:28:09.712Z,12.60
2023-03-20T21:30:44.105Z,12.60
2023-03-20T21:33:24.470Z,12.60
2023-03-20T21:35:53.514Z,12.40
2023-03-20T21:41:10.769Z,12.30
2023-03-20T21:43:39.795Z,12.10
2023-03-20T21:55:20.583Z,11.90
2023-03-20T21:58:02.494Z,11.90
2023-03-20T22:02:58.278Z,12.10
2023-03-20T22:06:03.768Z,12.00
2023-03-20T22:14:54.744Z,11.80
2023-03-20T22:20:19.694Z,11.80
2023-03-20T22:28:33.274Z,11.90
2023-03-20T22:31:28.570Z,11.80
2023-03-20T22:34:16.685Z,11.80
2023-03-20T22:39:40.877Z,11.70
2023-03-20T22:44:59.064Z,11.70
2023-03-20T22:47:28.199Z,11.80
2023-03-20T22:49:55.910Z,11.80
2023-03-20T22:52:34.738Z,11.70
2023-03-20T22:55:06.474Z,11.60
2023-03-20T22:57:42.394Z,11.60
2023-03-20T23:00:14.579Z,11.70
2023-03-20T23:02:42.618Z,11.70
2023-03-20T23:05:11.063Z,11.70
2023-03-20T23:07:38.873Z,11.80
2023-03-20T23:10:07.554Z,11.70
2023-03-20T23:12:36.686Z,11.80
2023-03-20T23:15:05.585Z,11.80
2023-03-20T23:17:33.380Z,12.00
2023-03-20T23:20:11.250Z,12.00
2023-03-20T23:22:40.014Z,12.00
2023-03-20T23:25:23.875Z,11.90
2023-03-20T23:27:58.965Z,11.70
2023-03-20T23:30:30.939Z,11.50
2023-03-20T23:33:06.629Z,11.40
2023-03-20T23:35:34.489Z,11.40
2023-03-20T23:38:02.425Z,11.30
2023-03-20T23:40:31.179Z,11.30
2023-03-20T23:42:58.812Z,11.40
2023-03-20T23:45:26.645Z,11.40
2023-03-20T23:47:54.498Z,11.40
2023-03-20T23:50:32.151Z,11.50
2023-03-20T23:53:13.744Z,11.70
2023-03-20T23:55:48.853Z,11.70
2023-03-20T23:58:17.510Z,11.40
